Time;durP1;ratioP1;P1;durP2;ratioP2;P2;SDS_P1;SDS_P2;PMS_P1;PMS_P2;Temp;Humidity;BMP_temperature;BMP_pressure;BME280_temperature;BME280_humidity;BME280_pressure;Samples;Min_cycle;Max_cycle;Signal;HPM_P1;HPM_P2
2023/08/24 00:01:11;;;;;;;0.90;0.90;;;16.30;99.90;;;;;;4972645;28;20053;-83
2023/08/24 00:03:37;;;;;;;0.90;0.90;;;16.40;99.90;;;;;;4958203;28;20453;-84
2023/08/24 00:06:03;;;;;;;0.80;0.80;;;16.40;99.90;;;;;;4983533;28;20067;-83
2023/08/24 00:08:28;;;;;;;0.93;0.93;;;16.20;99.90;;;;;;4963797;28;22086;-83
2023/08/24 00:10:54;;;;;;;0.90;0.90;;;16.20;99.90;;;;;;4977369;28;20054;-83
2023/08/24 00:13:20;;;;;;;0.90;0.90;;;16.30;99.90;;;;;;4977355;28;20801;-83
2023/08/24 00:15:46;;;;;;;0.90;0.90;;;16.10;99.90;;;;;;4957723;28;20054;-83
2023/08/24 00:18:12;;;;;;;0.90;0.90;;;16.20;99.90;;;;;;4951607;28;20109;-83
2023/08/24 00:20:37;;;;;;;1.00;1.00;;;16.10;99.90;;;;;;4955876;28;20116;-84
2023/08/24 00:23:03;;;;;;;0.98;0.98;;;16.00;99.90;;;;;;4955727;28;20080;-83
2023/08/24 00:25:32;;;;;;;0.90;0.90;;;16.10;99.90;;;;;;4978923;28;20056;-84
2023/08/24 00:27:58;;;;;;;0.90;0.90;;;16.00;99.90;;;;;;4957503;28;20843;-84
2023/08/24 00:30:24;;;;;;;0.90;0.90;;;16.10;99.90;;;;;;4958733;28;20054;-84
2023/08/24 00:32:50;;;;;;;0.90;0.90;;;16.00;99.90;;;;;;4960937;28;20082;-84
2023/08/24 00:35:16;;;;;;;0.80;0.80;;;16.10;99.90;;;;;;4976557;28;20051;-84
2023/08/24 00:37:41;;;;;;;0.85;0.85;;;16.00;99.90;;;;;;4954648;28;20049;-84
2023/08/24 00:40:09;;;;;;;0.82;0.82;;;16.00;99.90;;;;;;4961418;28;20137;-83
2023/08/24 00:42:47;;;;;;;0.90;0.90;;;16.00;99.90;;;;;;4957484;28;20050;-84
2023/08/24 00:45:14;;;;;;;0.88;0.88;;;15.90;99.90;;;;;;4958324;28;20046;-83
2023/08/24 00:47:44;;;;;;;0.80;0.80;;;15.80;99.90;;;;;;4960170;28;20050;-84
2023/08/24 00:50:11;;;;;;;0.80;0.80;;;15.80;99.90;;;;;;4941176;28;20039;-83
2023/08/24 00:52:41;;;;;;;0.80;0.80;;;15.80;99.90;;;;;;4976324;28;20039;-83
2023/08/24 00:55:08;;;;;;;0.80;0.80;;;15.70;99.90;;;;;;4975852;28;20100;-83
2023/08/24 00:57:34;;;;;;;0.80;0.80;;;15.70;99.90;;;;;;4958259;28;20059;-83
2023/08/24 01:00:11;;;;;;;0.80;0.80;;;15.90;99.90;;;;;;4960305;28;20100;-83
2023/08/24 01:02:39;;;;;;;0.80;0.80;;;15.90;99.90;;;;;;4956733;28;20046;-83
2023/08/24 01:05:06;;;;;;;0.90;0.90;;;15.70;99.90;;;;;;4980252;28;20053;-83
2023/08/24 01:07:38;;;;;;;0.82;0.82;;;15.90;99.90;;;;;;4979513;28;20109;-83
2023/08/24 01:10:06;;;;;;;0.80;0.80;;;15.90;99.90;;;;;;4958857;28;20058;-83
2023/08/24 01:12:50;;;;;;;0.80;0.80;;;15.70;99.90;;;;;;4960921;28;20054;-83
2023/08/24 01:15:25;;;;;;;0.80;0.80;;;15.60;99.90;;;;;;4964260;28;20085;-83
2023/08/24 01:17:55;;;;;;;0.80;0.80;;;15.80;99.90;;;;;;4959118;28;20046;-84
2023/08/24 01:20:21;;;;;;;0.80;0.80;;;15.90;99.90;;;;;;4974629;28;20392;-83
2023/08/24 01:23:14;;;;;;;0.90;0.90;;;15.90;99.90;;;;;;4964333;28;20057;-83
2023/08/24 01:26:14;;;;;;;0.90;0.90;;;15.80;99.90;;;;;;4959403;28;20536;-83
2023/08/24 01:28:42;;;;;;;1.00;1.00;;;16.00;99.90;;;;;;4957977;28;20545;-84
2023/08/24 01:31:08;;;;;;;1.00;1.00;;;15.90;99.90;;;;;;4976463;28;20080;-83
2023/08/24 01:33:34;;;;;;;1.00;1.00;;;16.10;99.90;;;;;;4962141;28;20046;-83
2023/08/24 01:36:00;;;;;;;1.00;1.00;;;16.00;99.90;;;;;;4959846;28;20596;-83
2023/08/24 01:38:26;;;;;;;0.85;0.85;;;16.00;99.90;;;;;;4965142;28;20038;-83
2023/08/24 01:41:16;;;;;;;0.90;0.90;;;16.20;99.90;;;;;;4978338;28;20137;-84
2023/08/24 01:43:45;;;;;;;1.00;1.00;;;16.10;99.90;;;;;;4954239;28;20526;-84
2023/08/24 01:46:15;;;;;;;1.08;1.08;;;16.30;99.90;;;;;;4962363;28;20073;-83
2023/08/24 01:48:41;;;;;;;1.10;1.10;;;16.20;99.90;;;;;;4964177;28;20470;-83
2023/08/24 01:51:10;;;;;;;1.00;1.00;;;16.20;99.90;;;;;;4958825;28;20075;-83
2023/08/24 01:53:36;;;;;;;1.00;1.00;;;16.30;99.90;;;;;;4978557;28;20046;-83
2023/08/24 01:56:11;;;;;;;1.00;1.00;;;16.20;99.90;;;;;;4961638;28;20088;-83
2023/08/24 01:58:37;;;;;;;0.95;0.95;;;16.20;99.90;;;;;;4955420;28;20049;-83
2023/08/24 02:01:04;;;;;;;0.90;0.90;;;16.30;99.90;;;;;;4980914;28;20046;-83
2023/08/24 02:03:30;;;;;;;1.00;1.00;;;16.30;99.90;;;;;;4978599;28;20042;-83
2023/08/24 02:05:56;;;;;;;1.05;1.05;;;16.50;99.90;;;;;;4962185;28;20531;-83
2023/08/24 02:08:22;;;;;;;1.00;1.00;;;16.40;99.90;;;;;;4958793;28;20097;-84
2023/08/24 02:10:48;;;;;;;1.10;1.10;;;16.40;99.90;;;;;;4956282;28;20485;-84
2023/08/24 02:13:14;;;;;;;1.10;1.10;;;16.60;99.90;;;;;;4981653;28;20062;-84
2023/08/24 02:15:39;;;;;;;1.10;1.10;;;16.50;99.90;;;;;;4982301;28;20124;-84
2023/08/24 02:18:09;;;;;;;1.10;1.10;;;16.60;99.90;;;;;;4960146;28;20503;-84
2023/08/24 02:20:35;;;;;;;1.00;1.00;;;16.60;99.90;;;;;;4981241;28;20060;-83
2023/08/24 02:23:01;;;;;;;1.10;1.10;;;16.50;99.90;;;;;;4959125;28;20665;-84
2023/08/24 02:25:27;;;;;;;1.20;1.20;;;16.60;99.90;;;;;;4958352;28;20148;-84
2023/08/24 02:27:53;;;;;;;1.20;1.20;;;16.70;99.90;;;;;;4959735;28;20050;-84
2023/08/24 02:30:18;;;;;;;1.10;1.10;;;16.60;99.90;;;;;;4959882;28;20049;-84
2023/08/24 02:32:44;;;;;;;1.20;1.20;;;16.60;99.90;;;;;;4963423;28;20820;-83
2023/08/24 02:35:10;;;;;;;1.20;1.20;;;16.80;99.90;;;;;;4961165;28;20496;-84
2023/08/24 02:37:35;;;;;;;1.10;1.10;;;16.70;99.90;;;;;;4979865;28;20488;-83
2023/08/24 02:40:01;;;;;;;1.05;1.05;;;16.80;99.90;;;;;;4967657;28;20046;-84
2023/08/24 02:42:27;;;;;;;1.10;1.10;;;16.90;99.90;;;;;;4954076;28;20046;-83
2023/08/24 02:44:53;;;;;;;1.20;1.20;;;16.60;99.90;;;;;;4975517;28;20046;-83
2023/08/24 02:47:18;;;;;;;1.15;1.15;;;16.90;99.90;;;;;;4977324;28;20183;-83
2023/08/24 02:49:44;;;;;;;1.20;1.20;;;16.70;99.90;;;;;;4960844;28;20058;-83
2023/08/24 02:52:10;;;;;;;1.20;1.20;;;16.70;99.90;;;;;;4964077;28;20054;-83
2023/08/24 02:54:35;;;;;;;1.30;1.30;;;16.80;99.90;;;;;;4959347;28;20050;-83
2023/08/24 02:57:01;;;;;;;1.33;1.33;;;16.80;99.90;;;;;;4979192;28;20137;-84
2023/08/24 02:59:26;;;;;;;1.30;1.30;;;16.80;99.90;;;;;;4975429;28;20054;-83
2023/08/24 03:01:52;;;;;;;1.20;1.20;;;16.80;99.90;;;;;;4964315;28;20500;-83
2023/08/24 03:04:19;;;;;;;1.30;1.30;;;16.70;99.90;;;;;;4983899;28;20401;-83
2023/08/24 03:06:45;;;;;;;1.25;1.25;;;16.60;99.90;;;;;;4983562;28;20574;-83
2023/08/24 03:09:10;;;;;;;1.20;1.20;;;16.80;99.90;;;;;;4978364;28;20132;-83
2023/08/24 03:11:36;;;;;;;1.20;1.20;;;16.60;99.90;;;;;;4964309;28;20074;-83
2023/08/24 03:14:01;;;;;;;1.25;1.25;;;16.70;99.90;;;;;;4962999;28;20205;-83
2023/08/24 03:16:27;;;;;;;1.30;1.30;;;16.70;99.90;;;;;;4955872;28;20082;-83
2023/08/24 03:18:53;;;;;;;1.48;1.38;;;16.60;99.90;;;;;;4983012;28;20051;-83
2023/08/24 03:21:19;;;;;;;1.30;1.30;;;16.50;99.90;;;;;;4983759;28;20050;-83
2023/08/24 03:23:44;;;;;;;1.30;1.30;;;16.50;99.90;;;;;;4976129;28;20043;-83
2023/08/24 03:26:10;;;;;;;1.27;1.27;;;16.40;99.90;;;;;;4955812;28;20096;-83
2023/08/24 03:28:35;;;;;;;1.45;1.40;;;16.40;99.90;;;;;;4958424;28;20054;-83
2023/08/24 03:31:01;;;;;;;1.30;1.30;;;16.60;99.90;;;;;;4961858;28;20100;-83
2023/08/24 03:33:27;;;;;;;1.30;1.30;;;16.60;99.90;;;;;;4946544;28;20042;-84
2023/08/24 03:35:54;;;;;;;1.45;1.40;;;16.50;99.90;;;;;;4959539;28;20065;-84
2023/08/24 03:38:19;;;;;;;1.50;1.40;;;16.70;99.90;;;;;;4951832;28;20065;-83
2023/08/24 03:40:45;;;;;;;1.50;1.40;;;16.70;99.90;;;;;;4982039;28;20480;-83
2023/08/24 03:43:11;;;;;;;1.58;1.48;;;16.40;99.90;;;;;;4962101;28;20530;-84
2023/08/24 03:45:37;;;;;;;1.52;1.42;;;16.40;99.90;;;;;;4964060;28;20061;-83
2023/08/24 03:48:02;;;;;;;1.60;1.50;;;16.60;99.90;;;;;;4979938;28;20145;-83
2023/08/24 03:50:28;;;;;;;1.70;1.60;;;16.60;99.90;;;;;;4961534;28;20046;-83
2023/08/24 03:52:54;;;;;;;1.60;1.50;;;16.60;99.90;;;;;;4983577;28;20072;-84
2023/08/24 03:55:20;;;;;;;1.65;1.55;;;16.50;99.90;;;;;;4965011;28;20046;-84
2023/08/24 03:57:46;;;;;;;1.67;1.58;;;16.60;99.90;;;;;;4985718;28;20054;-84
2023/08/24 04:00:14;;;;;;;1.70;1.60;;;16.50;99.90;;;;;;4962393;28;20057;-83
2023/08/24 04:02:42;;;;;;;1.80;1.70;;;16.50;99.90;;;;;;4979043;28;20086;-84
2023/08/24 04:05:08;;;;;;;1.70;1.60;;;16.60;99.90;;;;;;4984492;28;20086;-83
2023/08/24 04:07:36;;;;;;;1.77;1.67;;;16.50;99.90;;;;;;4984247;28;20050;-83
2023/08/24 04:10:04;;;;;;;1.80;1.70;;;16.30;99.90;;;;;;4983532;28;20132;-84
2023/08/24 04:12:31;;;;;;;1.83;1.73;;;16.40;99.90;;;;;;4976708;28;20085;-83
2023/08/24 04:14:57;;;;;;;1.80;1.70;;;16.10;99.90;;;;;;4983021;28;20081;-83
2023/08/24 04:17:23;;;;;;;1.80;1.70;;;16.50;99.90;;;;;;4967116;28;20058;-83
2023/08/24 04:19:49;;;;;;;1.80;1.70;;;16.30;99.90;;;;;;4980836;28;20038;-83
2023/08/24 04:22:15;;;;;;;1.80;1.70;;;16.20;99.90;;;;;;4962057;28;20056;-83
2023/08/24 04:24:41;;;;;;;1.80;1.70;;;16.40;99.90;;;;;;4963134;28;20054;-83
2023/08/24 04:27:07;;;;;;;1.80;1.70;;;16.30;99.90;;;;;;4966932;28;20046;-83
2023/08/24 04:29:33;;;;;;;1.80;1.70;;;16.00;99.90;;;;;;4984637;28;20054;-84
2023/08/24 04:31:58;;;;;;;1.90;1.80;;;16.40;99.90;;;;;;4960663;28;20099;-83
2023/08/24 04:34:24;;;;;;;1.83;1.73;;;16.40;99.90;;;;;;4960850;28;20089;-84
2023/08/24 04:36:50;;;;;;;1.88;1.77;;;16.20;99.90;;;;;;4964219;28;20054;-83
2023/08/24 04:39:16;;;;;;;1.80;1.70;;;16.10;99.90;;;;;;4982372;28;20050;-83
2023/08/24 04:41:42;;;;;;;2.10;2.00;;;16.10;99.90;;;;;;4965775;28;20129;-84
2023/08/24 04:44:08;;;;;;;1.80;1.70;;;16.30;99.90;;;;;;4960454;28;20543;-83
2023/08/24 04:46:33;;;;;;;1.83;1.73;;;16.10;99.90;;;;;;4964292;28;20580;-84
2023/08/24 04:48:59;;;;;;;1.80;1.70;;;16.00;99.90;;;;;;4964029;28;20149;-84
2023/08/24 04:51:27;;;;;;;1.80;1.70;;;16.20;99.90;;;;;;4963728;28;20129;-83
2023/08/24 04:53:53;;;;;;;1.80;1.70;;;16.20;99.90;;;;;;4960945;28;20423;-83
2023/08/24 04:56:19;;;;;;;1.98;1.88;;;16.20;99.90;;;;;;4967305;28;20157;-84
2023/08/24 04:59:00;;;;;;;2.00;1.90;;;16.10;99.90;;;;;;4984341;28;20046;-84
2023/08/24 05:01:26;;;;;;;1.98;1.88;;;16.10;99.90;;;;;;4980049;28;20062;-84
2023/08/24 05:03:53;;;;;;;1.80;1.70;;;16.20;99.90;;;;;;4978698;28;20104;-84
2023/08/24 05:06:20;;;;;;;1.75;1.65;;;16.20;99.90;;;;;;4963703;28;20505;-83
2023/08/24 05:08:45;;;;;;;1.67;1.58;;;16.20;99.90;;;;;;4962247;28;20061;-83
2023/08/24 05:11:19;;;;;;;1.73;1.63;;;16.60;99.90;;;;;;4963298;28;20042;-83
2023/08/24 05:13:45;;;;;;;1.75;1.65;;;16.40;99.90;;;;;;4981629;28;20046;-83
2023/08/24 05:16:13;;;;;;;1.65;1.55;;;16.50;99.90;;;;;;4962150;28;20042;-83
2023/08/24 05:18:39;;;;;;;1.52;1.42;;;17.00;99.90;;;;;;4979495;28;20061;-82
2023/08/24 05:21:06;;;;;;;1.55;1.45;;;17.70;99.90;;;;;;4978430;28;20046;-83
2023/08/24 05:23:35;;;;;;;1.50;1.40;;;17.90;99.90;;;;;;4964091;28;20052;-83
2023/08/24 05:26:02;;;;;;;1.45;1.40;;;18.50;99.90;;;;;;4972162;28;20439;-83
2023/08/24 05:28:29;;;;;;;1.50;1.40;;;18.60;99.90;;;;;;4962460;28;20048;-83
2023/08/24 05:30:56;;;;;;;1.50;1.40;;;19.00;99.90;;;;;;4959676;28;20106;-82
2023/08/24 05:33:23;;;;;;;1.73;1.63;;;19.40;99.90;;;;;;4963405;28;20059;-82
2023/08/24 05:35:50;;;;;;;1.90;1.80;;;19.50;99.90;;;;;;4963832;28;20133;-83
2023/08/24 05:38:16;;;;;;;1.95;1.85;;;19.90;99.90;;;;;;4974653;28;20066;-84
2023/08/24 05:40:43;;;;;;;2.13;2.03;;;20.10;99.90;;;;;;4963072;28;20489;-84
2023/08/24 05:43:11;;;;;;;2.10;2.00;;;20.20;99.90;;;;;;4963899;28;20050;-83
2023/08/24 05:45:39;;;;;;;2.20;2.10;;;20.50;99.90;;;;;;4981034;28;20050;-84
2023/08/24 05:48:05;;;;;;;2.20;2.10;;;20.60;99.90;;;;;;4964609;28;20065;-83
2023/08/24 05:50:31;;;;;;;2.13;2.03;;;20.90;99.90;;;;;;4960150;28;20058;-83
2023/08/24 05:52:56;;;;;;;2.30;2.20;;;21.30;99.90;;;;;;4963679;28;20042;-84
2023/08/24 05:55:22;;;;;;;1.90;1.80;;;19.20;99.90;;;;;;4962892;28;20201;-84
2023/08/24 05:57:48;;;;;;;2.10;2.00;;;19.30;99.90;;;;;;4965911;28;20057;-84
2023/08/24 06:00:14;;;;;;;2.00;1.90;;;19.00;99.90;;;;;;4960911;28;20047;-85
2023/08/24 06:02:40;;;;;;;2.05;1.95;;;19.00;99.90;;;;;;4981641;28;20046;-83
2023/08/24 06:05:07;;;;;;;2.00;1.90;;;18.80;99.90;;;;;;4964389;28;20112;-84
2023/08/24 06:07:33;;;;;;;2.13;2.03;;;19.00;99.90;;;;;;4966790;28;20051;-84
2023/08/24 06:09:59;;;;;;;2.10;2.00;;;19.00;99.90;;;;;;4978382;28;20057;-86
2023/08/24 06:12:25;;;;;;;2.13;2.03;;;18.90;99.90;;;;;;4965405;28;20057;-84
2023/08/24 06:14:50;;;;;;;2.28;2.17;;;19.10;99.90;;;;;;4960268;28;20072;-84
2023/08/24 06:17:16;;;;;;;2.13;2.03;;;18.90;99.90;;;;;;4957283;28;20141;-84
2023/08/24 06:19:42;;;;;;;2.22;2.13;;;19.00;99.90;;;;;;4980694;28;20121;-84
2023/08/24 06:22:08;;;;;;;2.28;2.17;;;19.10;99.90;;;;;;4953955;28;20042;-84
2023/08/24 06:24:35;;;;;;;1.23;1.23;;;18.90;99.90;;;;;;4960085;28;20050;-84
2023/08/24 06:27:01;;;;;;;1.00;1.00;;;18.90;99.90;;;;;;4966819;28;20049;-85
2023/08/24 06:29:30;;;;;;;1.02;1.02;;;19.00;99.90;;;;;;4980117;28;20132;-87
2023/08/24 06:31:56;;;;;;;1.10;1.10;;;19.20;99.90;;;;;;4961521;28;20065;-85
2023/08/24 06:34:22;;;;;;;1.00;1.00;;;19.20;99.90;;;;;;4943158;28;20046;-84
2023/08/24 06:36:50;;;;;;;0.95;0.95;;;19.60;99.90;;;;;;4957465;28;20070;-84
2023/08/24 06:39:16;;;;;;;0.80;0.80;;;19.30;99.90;;;;;;4978952;28;20058;-82
2023/08/24 06:41:41;;;;;;;0.90;0.90;;;19.70;99.90;;;;;;4980599;28;20050;-82
2023/08/24 06:44:07;;;;;;;1.40;1.40;;;19.40;99.90;;;;;;4954581;28;20465;-82
2023/08/24 06:46:33;;;;;;;0.63;0.63;;;19.40;99.90;;;;;;4973788;28;20535;-81
2023/08/24 06:48:59;;;;;;;0.68;0.68;;;18.90;99.90;;;;;;4974871;28;20125;-81
2023/08/24 06:51:25;;;;;;;0.70;0.70;;;18.90;99.90;;;;;;4971956;28;20046;-84
2023/08/24 06:53:51;;;;;;;0.60;0.60;;;19.10;99.90;;;;;;4960539;28;20488;-84
2023/08/24 06:56:17;;;;;;;0.70;0.70;;;19.40;99.90;;;;;;4962865;28;20104;-85
2023/08/24 06:58:43;;;;;;;0.60;0.60;;;19.70;99.90;;;;;;4961875;28;20131;-84
2023/08/24 07:01:08;;;;;;;0.50;0.50;;;20.00;99.90;;;;;;4954695;28;20107;-83
2023/08/24 07:03:34;;;;;;;0.50;0.50;;;20.10;99.90;;;;;;4973681;28;20066;-85
2023/08/24 07:06:00;;;;;;;0.60;0.60;;;20.00;99.90;;;;;;4961013;28;20078;-85
2023/08/24 07:08:25;;;;;;;0.50;0.50;;;20.10;99.90;;;;;;4959904;28;20149;-86
2023/08/24 07:10:51;;;;;;;0.50;0.50;;;20.40;99.90;;;;;;4958553;28;20046;-85
2023/08/24 07:13:17;;;;;;;0.60;0.60;;;20.40;99.90;;;;;;4978810;28;20044;-84
2023/08/24 07:15:45;;;;;;;0.60;0.60;;;20.70;99.90;;;;;;4976954;28;20101;-85
2023/08/24 07:18:11;;;;;;;0.60;0.60;;;20.90;99.90;;;;;;4980504;28;20495;-83
2023/08/24 07:20:37;;;;;;;0.60;0.60;;;21.30;99.90;;;;;;4978852;28;20101;-84
2023/08/24 07:23:03;;;;;;;0.70;0.70;;;21.10;99.90;;;;;;4958437;28;20043;-87
2023/08/24 07:25:29;;;;;;;0.80;0.80;;;20.80;99.90;;;;;;4961395;28;20061;-85
2023/08/24 07:27:59;;;;;;;0.70;0.70;;;20.90;99.90;;;;;;4963021;28;20042;-85
2023/08/24 07:30:28;;;;;;;0.70;0.70;;;20.90;99.90;;;;;;4963034;28;20153;-84
2023/08/24 07:32:54;;;;;;;0.90;0.90;;;21.00;99.90;;;;;;4960734;28;20145;-86
2023/08/24 07:35:20;;;;;;;0.90;0.90;;;21.30;99.90;;;;;;4952597;28;20049;-85
2023/08/24 07:37:49;;;;;;;0.80;0.80;;;21.30;99.90;;;;;;4957433;28;20061;-84
2023/08/24 07:40:15;;;;;;;0.90;0.90;;;21.60;99.90;;;;;;4967622;28;20190;-84
2023/08/24 07:42:50;;;;;;;0.85;0.85;;;21.50;99.90;;;;;;4968124;28;20053;-84
2023/08/24 07:45:16;;;;;;;0.95;0.95;;;21.50;99.90;;;;;;4964113;28;20550;-84
2023/08/24 07:51:23;;;;;;;1.00;1.00;;;21.50;99.90;;;;;;4980427;28;20092;-83
2023/08/24 07:53:51;;;;;;;0.70;0.70;;;22.00;99.90;;;;;;4984029;28;20054;-85
2023/08/24 07:56:20;;;;;;;0.73;0.73;;;22.00;99.90;;;;;;4949823;28;20062;-85
2023/08/24 07:58:46;;;;;;;0.70;0.70;;;22.40;99.90;;;;;;4957197;28;20054;-83
2023/08/24 08:01:11;;;;;;;0.70;0.70;;;22.60;99.90;;;;;;4966679;28;20538;-84
2023/08/24 08:03:37;;;;;;;0.80;0.80;;;22.40;99.90;;;;;;4945505;28;20053;-82
2023/08/24 08:06:04;;;;;;;0.80;0.80;;;22.30;99.90;;;;;;4956464;28;20077;-84
2023/08/24 08:08:30;;;;;;;0.70;0.70;;;22.10;99.90;;;;;;4962563;28;20050;-85
2023/08/24 08:11:00;;;;;;;0.70;0.70;;;22.60;99.90;;;;;;4957783;28;20052;-84
2023/08/24 08:13:27;;;;;;;0.60;0.60;;;22.50;99.90;;;;;;4964199;28;20569;-83
2023/08/24 08:15:53;;;;;;;0.60;0.60;;;22.50;99.90;;;;;;4973764;28;20528;-86
2023/08/24 08:18:19;;;;;;;0.60;0.60;;;22.70;99.90;;;;;;4960037;28;20500;-85
2023/08/24 08:20:45;;;;;;;0.60;0.60;;;22.90;99.90;;;;;;4958883;28;20125;-84
2023/08/24 08:23:10;;;;;;;0.50;0.50;;;22.60;99.90;;;;;;4955408;28;20047;-89
2023/08/24 08:25:36;;;;;;;0.50;0.50;;;23.40;99.90;;;;;;4963483;28;20404;-86
2023/08/24 08:28:05;;;;;;;0.50;0.50;;;23.30;99.90;;;;;;4957298;28;20201;-84
2023/08/24 08:30:30;;;;;;;0.47;0.47;;;23.40;99.90;;;;;;4964941;28;20137;-86
2023/08/24 08:32:56;;;;;;;0.40;0.40;;;23.70;99.90;;;;;;4982793;28;20104;-84
2023/08/24 08:35:22;;;;;;;0.43;0.43;;;23.50;99.90;;;;;;4958687;28;20050;-84
2023/08/24 08:37:49;;;;;;;0.40;0.40;;;23.40;99.90;;;;;;4982904;28;20057;-87
2023/08/24 08:40:17;;;;;;;0.35;0.35;;;23.40;99.90;;;;;;4960968;28;20074;-83
2023/08/24 08:42:42;;;;;;;0.43;0.43;;;23.60;99.90;;;;;;4959597;28;20062;-87
2023/08/24 08:45:10;;;;;;;0.40;0.40;;;23.60;99.90;;;;;;4960719;28;20412;-86
2023/08/24 08:47:35;;;;;;;0.60;0.60;;;23.40;99.90;;;;;;4958508;28;20138;-85
2023/08/24 08:50:05;;;;;;;0.50;0.50;;;23.90;99.90;;;;;;4959953;28;20605;-84
2023/08/24 08:52:34;;;;;;;0.60;0.60;;;24.40;99.90;;;;;;4964013;28;20132;-85
2023/08/24 08:55:00;;;;;;;0.30;0.30;;;24.50;99.90;;;;;;4962199;28;20657;-86
2023/08/24 08:57:26;;;;;;;0.35;0.35;;;24.20;99.90;;;;;;4959340;28;20077;-85
2023/08/24 08:59:53;;;;;;;0.50;0.50;;;24.40;99.90;;;;;;4962304;28;20563;-86
2023/08/24 09:02:21;;;;;;;0.40;0.40;;;24.10;99.90;;;;;;4962812;28;20073;-85
2023/08/24 09:04:50;;;;;;;0.30;0.30;;;24.40;99.90;;;;;;4966461;28;20042;-85
2023/08/24 09:07:16;;;;;;;0.40;0.40;;;24.60;99.90;;;;;;4964615;28;20062;-84
2023/08/24 09:09:42;;;;;;;0.30;0.30;;;25.00;99.90;;;;;;4956741;28;20050;-84
2023/08/24 09:12:09;;;;;;;0.30;0.30;;;24.90;99.90;;;;;;4959986;28;20508;-84
2023/08/24 09:14:35;;;;;;;0.30;0.30;;;25.10;99.90;;;;;;4964816;28;20408;-81
2023/08/24 09:17:01;;;;;;;0.30;0.30;;;24.90;99.90;;;;;;4974279;28;20064;-82
2023/08/24 09:19:30;;;;;;;0.40;0.40;;;24.80;99.90;;;;;;4971362;28;20045;-85
2023/08/24 09:21:57;;;;;;;0.40;0.40;;;25.20;99.90;;;;;;4966321;28;20059;-84
2023/08/24 09:24:34;;;;;;;0.40;0.40;;;25.60;99.90;;;;;;4975268;28;20045;-83
2023/08/24 09:27:05;;;;;;;0.30;0.30;;;25.10;99.90;;;;;;4943036;28;20559;-86
2023/08/24 09:29:36;;;;;;;0.30;0.30;;;25.00;99.90;;;;;;4957574;28;20488;-84
2023/08/24 09:32:02;;;;;;;0.30;0.30;;;25.20;99.90;;;;;;4969661;28;20055;-86
2023/08/24 09:34:30;;;;;;;0.30;0.30;;;25.30;99.90;;;;;;4952148;28;20049;-87
2023/08/24 09:36:57;;;;;;;0.40;0.40;;;25.50;99.90;;;;;;4957923;28;20050;-86
2023/08/24 09:39:23;;;;;;;0.40;0.40;;;25.10;99.90;;;;;;4965536;28;20046;-84
2023/08/24 09:41:50;;;;;;;0.30;0.30;;;25.70;99.90;;;;;;4959490;28;20054;-87
2023/08/24 09:44:19;;;;;;;0.30;0.30;;;25.90;99.90;;;;;;4962201;28;20068;-83
2023/08/24 09:46:45;;;;;;;0.32;0.32;;;26.00;99.90;;;;;;4957779;28;20051;-82
2023/08/24 09:49:11;;;;;;;0.30;0.30;;;26.20;99.90;;;;;;4959450;28;20050;-84
2023/08/24 09:51:40;;;;;;;0.30;0.30;;;26.20;99.90;;;;;;4956602;28;20499;-85
2023/08/24 09:54:10;;;;;;;0.30;0.30;;;25.60;99.90;;;;;;4981573;28;20058;-84
2023/08/24 09:56:38;;;;;;;0.30;0.30;;;25.10;99.90;;;;;;4961688;28;20481;-86
2023/08/24 09:59:24;;;;;;;0.40;0.40;;;25.10;99.90;;;;;;4979069;28;20138;-86
2023/08/24 10:01:51;;;;;;;0.38;0.38;;;25.40;99.90;;;;;;4939811;28;20038;-84
2023/08/24 10:04:29;;;;;;;0.30;0.30;;;25.80;99.90;;;;;;4964067;28;20082;-87
2023/08/24 10:07:15;;;;;;;0.40;0.40;;;25.50;99.90;;;;;;4943647;28;20058;-85
2023/08/24 10:09:56;;;;;;;0.30;0.30;;;24.90;99.90;;;;;;4958465;28;20781;-85
2023/08/24 10:12:26;;;;;;;0.30;0.30;;;24.80;99.90;;;;;;4962110;28;20089;-83
2023/08/24 10:15:03;;;;;;;0.30;0.30;;;24.80;99.90;;;;;;4963906;28;20565;-86
2023/08/24 10:17:32;;;;;;;0.35;0.35;;;24.90;99.90;;;;;;4964353;28;20053;-88
2023/08/24 10:20:04;;;;;;;0.30;0.30;;;24.80;99.90;;;;;;4958508;28;20060;-87
2023/08/24 10:22:33;;;;;;;0.30;0.30;;;24.90;99.90;;;;;;4947558;28;20138;-89
2023/08/24 10:24:59;;;;;;;0.30;0.30;;;24.80;99.90;;;;;;4963038;28;20050;-84
2023/08/24 10:27:27;;;;;;;0.30;0.30;;;24.80;99.90;;;;;;4963823;28;20051;-84
2023/08/24 10:29:53;;;;;;;0.30;0.30;;;24.70;99.90;;;;;;4956598;28;20169;-84
2023/08/24 10:32:23;;;;;;;0.30;0.30;;;24.50;99.90;;;;;;4958364;28;20674;-83
2023/08/24 10:34:50;;;;;;;0.30;0.30;;;24.40;99.90;;;;;;4978386;28;20602;-85
2023/08/24 10:37:16;;;;;;;0.38;0.38;;;24.30;99.90;;;;;;4958139;28;20052;-83
2023/08/24 10:39:46;;;;;;;0.30;0.30;;;24.20;99.90;;;;;;4979296;28;20042;-83
2023/08/24 10:42:13;;;;;;;0.30;0.30;;;24.20;99.90;;;;;;4977692;28;20456;-84
2023/08/24 10:44:46;;;;;;;0.40;0.40;;;24.20;99.90;;;;;;4962135;28;20043;-84
2023/08/24 10:47:15;;;;;;;0.50;0.50;;;24.20;99.90;;;;;;4967971;28;20059;-83
2023/08/24 10:49:56;;;;;;;0.30;0.30;;;24.20;99.90;;;;;;4971609;28;20053;-84
2023/08/24 10:52:36;;;;;;;0.30;0.30;;;24.20;99.90;;;;;;4956177;28;20196;-85
2023/08/24 10:55:03;;;;;;;0.40;0.40;;;24.30;99.90;;;;;;4940173;28;20046;-85
2023/08/24 10:57:37;;;;;;;0.50;0.50;;;24.40;99.90;;;;;;4957944;28;20092;-86
2023/08/24 11:00:11;;;;;;;1.60;0.50;;;24.40;99.90;;;;;;4962992;28;20057;-84
2023/08/24 11:02:47;;;;;;;;;;;24.40;99.90;;;;;;4963251;28;20090;-84
2023/08/24 11:05:18;;;;;;;0.60;0.60;;;24.60;99.90;;;;;;4963613;28;19922;-87
2023/08/24 11:08:04;;;;;;;0.40;0.40;;;24.50;99.90;;;;;;4979607;28;20555;-86
2023/08/24 11:10:46;;;;;;;0.40;0.40;;;24.70;99.90;;;;;;4967756;28;20046;-84
2023/08/24 11:13:19;;;;;;;0.43;0.43;;;24.70;99.90;;;;;;4959643;28;20513;-85
2023/08/24 11:15:54;;;;;;;0.30;0.30;;;24.70;99.90;;;;;;4964273;28;20043;-86
2023/08/24 11:18:26;;;;;;;0.30;0.30;;;24.90;99.90;;;;;;4963617;28;20058;-86
2023/08/24 11:20:57;;;;;;;0.40;0.40;;;24.80;99.90;;;;;;4958088;28;20496;-84
2023/08/24 11:23:24;;;;;;;0.30;0.30;;;24.80;99.90;;;;;;4963168;28;20053;-87
2023/08/24 11:25:59;;;;;;;0.30;0.30;;;25.00;99.90;;;;;;4968015;28;20538;-87
2023/08/24 11:28:27;;;;;;;0.40;0.40;;;25.20;99.90;;;;;;4942992;28;20173;-85
2023/08/24 11:30:53;;;;;;;0.35;0.35;;;25.60;99.90;;;;;;4955448;28;20060;-84
2023/08/24 11:33:29;;;;;;;0.40;0.40;;;25.70;99.90;;;;;;4970296;28;20047;-87
2023/08/24 11:35:55;;;;;;;0.30;0.30;;;25.80;99.90;;;;;;4962223;28;20043;-84
2023/08/24 11:38:21;;;;;;;0.32;0.32;;;25.50;99.90;;;;;;4972611;28;20058;-85
2023/08/24 11:40:47;;;;;;;0.30;0.30;;;25.80;99.90;;;;;;4983308;28;20128;-85
2023/08/24 11:43:22;;;;;;;0.32;0.32;;;25.90;99.90;;;;;;4964437;28;20087;-86
2023/08/24 11:45:48;;;;;;;0.30;0.30;;;25.60;99.90;;;;;;4986565;28;20085;-84
2023/08/24 11:48:14;;;;;;;0.30;0.30;;;25.80;99.90;;;;;;4967729;28;20061;-86
2023/08/24 11:50:40;;;;;;;0.30;0.30;;;26.10;99.90;;;;;;4962604;28;20528;-86
2023/08/24 11:53:07;;;;;;;0.30;0.30;;;25.90;99.90;;;;;;4959711;28;20047;-86
2023/08/24 11:55:32;;;;;;;0.30;0.30;;;25.60;99.90;;;;;;4954103;28;20121;-86
2023/08/24 11:58:00;;;;;;;0.30;0.30;;;25.70;99.90;;;;;;4962648;28;20129;-86
2023/08/24 12:00:26;;;;;;;0.40;0.40;;;25.60;99.90;;;;;;4963988;28;20039;-86
2023/08/24 12:02:52;;;;;;;0.40;0.40;;;25.50;99.90;;;;;;4957967;28;20054;-85
2023/08/24 12:05:26;;;;;;;0.30;0.30;;;25.40;99.90;;;;;;4965943;28;20058;-86
2023/08/24 12:07:53;;;;;;;0.30;0.30;;;25.60;99.90;;;;;;4961857;28;20042;-87
2023/08/24 12:10:19;;;;;;;0.30;0.30;;;25.40;99.90;;;;;;4960005;28;20097;-84
2023/08/24 12:12:45;;;;;;;0.30;0.30;;;25.50;99.90;;;;;;4956904;28;20113;-84
2023/08/24 12:15:20;;;;;;;0.30;0.30;;;25.50;99.90;;;;;;4956633;28;20077;-85
2023/08/24 12:17:47;;;;;;;0.30;0.30;;;25.30;99.90;;;;;;4966128;28;20100;-85
2023/08/24 12:20:24;;;;;;;0.30;0.30;;;25.30;99.90;;;;;;4959088;28;20504;-85
2023/08/24 12:22:55;;;;;;;0.40;0.40;;;25.60;99.90;;;;;;4967158;28;20121;-86
2023/08/24 12:25:25;;;;;;;0.50;0.50;;;25.80;99.90;;;;;;4962354;28;20058;-86
2023/08/24 12:27:52;;;;;;;0.30;0.30;;;26.00;99.90;;;;;;4951687;28;20125;-85
2023/08/24 12:30:18;;;;;;;0.30;0.30;;;26.20;99.90;;;;;;4965057;28;20085;-85
2023/08/24 12:32:46;;;;;;;0.40;0.40;;;26.40;99.90;;;;;;4965065;28;20194;-85
2023/08/24 12:35:14;;;;;;;0.30;0.30;;;26.30;99.90;;;;;;4961519;28;20064;-85
2023/08/24 12:37:39;;;;;;;0.40;0.40;;;27.20;99.90;;;;;;4979333;28;20054;-86
2023/08/24 12:40:06;;;;;;;0.30;0.30;;;27.20;99.90;;;;;;4965942;28;20105;-85
2023/08/24 12:42:32;;;;;;;0.43;0.43;;;27.10;99.90;;;;;;4967449;28;20134;-83
2023/08/24 12:44:58;;;;;;;0.30;0.30;;;27.70;99.90;;;;;;4963252;28;20046;-85
2023/08/24 12:47:23;;;;;;;0.30;0.30;;;27.90;99.90;;;;;;4984375;28;20157;-88
2023/08/24 12:49:50;;;;;;;0.30;0.30;;;27.40;99.90;;;;;;4967227;28;20046;-86
2023/08/24 12:52:16;;;;;;;0.40;0.40;;;27.20;99.90;;;;;;4980924;28;20038;-81
2023/08/24 12:54:42;;;;;;;0.32;0.32;;;27.60;99.90;;;;;;4972810;28;20508;-86